sensor_id;sensor_type;location;lat;lon;timestamp;temperature;humidity
12053;DHT22;6087;48.982;12.064;2022-12-18T00:00:57;-1.80;91.90
12053;DHT22;6087;48.982;12.064;2022-12-18T00:03:25;-1.80;91.30
12053;DHT22;6087;48.982;12.064;2022-12-18T00:05:53;-1.80;91.10
12053;DHT22;6087;48.982;12.064;2022-12-18T00:08:20;-1.80;91.20
12053;DHT22;6087;48.982;12.064;2022-12-18T00:10:47;-1.80;91.30
12053;DHT22;6087;48.982;12.064;2022-12-18T00:13:14;-1.90;91.80
12053;DHT22;6087;48.982;12.064;2022-12-18T00:15:41;-1.80;91.90
12053;DHT22;6087;48.982;12.064;2022-12-18T00:18:08;-1.80;92.00
12053;DHT22;6087;48.982;12.064;2022-12-18T00:20:36;-1.80;92.30
12053;DHT22;6087;48.982;12.064;2022-12-18T00:23:05;-1.80;92.30
12053;DHT22;6087;48.982;12.064;2022-12-18T00:25:33;-1.80;92.30
12053;DHT22;6087;48.982;12.064;2022-12-18T00:28:01;-1.80;92.70
12053;DHT22;6087;48.982;12.064;2022-12-18T00:30:28;-1.80;93.10
12053;DHT22;6087;48.982;12.064;2022-12-18T00:32:55;-1.80;92.50
12053;DHT22;6087;48.982;12.064;2022-12-18T00:35:22;-1.80;93.00
12053;DHT22;6087;48.982;12.064;2022-12-18T00:37:49;-1.80;92.90
12053;DHT22;6087;48.982;12.064;2022-12-18T00:40:17;-1.80;92.00
12053;DHT22;6087;48.982;12.064;2022-12-18T00:42:44;-1.80;92.20
12053;DHT22;6087;48.982;12.064;2022-12-18T00:45:22;-1.90;92.10
12053;DHT22;6087;48.982;12.064;2022-12-18T00:47:49;-1.90;93.30
12053;DHT22;6087;48.982;12.064;2022-12-18T00:50:16;-1.90;93.00
12053;DHT22;6087;48.982;12.064;2022-12-18T00:52:43;-1.80;92.80
12053;DHT22;6087;48.982;12.064;2022-12-18T00:55:11;-1.80;92.80
12053;DHT22;6087;48.982;12.064;2022-12-18T00:57:42;-1.80;93.10
12053;DHT22;6087;48.982;12.064;2022-12-18T01:00:12;-1.80;93.40
12053;DHT22;6087;48.982;12.064;2022-12-18T01:02:40;-1.80;92.90
12053;DHT22;6087;48.982;12.064;2022-12-18T01:05:07;-1.80;93.10
12053;DHT22;6087;48.982;12.064;2022-12-18T01:07:34;-1.80;92.60
12053;DHT22;6087;48.982;12.064;2022-12-18T01:10:02;-1.80;92.40
12053;DHT22;6087;48.982;12.064;2022-12-18T01:12:29;-1.80;92.30
12053;DHT22;6087;48.982;12.064;2022-12-18T01:14:58;-1.90;92.70
12053;DHT22;6087;48.982;12.064;2022-12-18T01:17:25;-1.90;92.80
12053;DHT22;6087;48.982;12.064;2022-12-18T01:19:52;-1.90;92.30
12053;DHT22;6087;48.982;12.064;2022-12-18T01:22:19;-1.80;92.40
12053;DHT22;6087;48.982;12.064;2022-12-18T01:24:46;-1.80;92.60
12053;DHT22;6087;48.982;12.064;2022-12-18T01:27:13;-1.90;92.30
12053;DHT22;6087;48.982;12.064;2022-12-18T01:29:40;-1.80;92.60
12053;DHT22;6087;48.982;12.064;2022-12-18T01:32:09;-1.80;92.80
12053;DHT22;6087;48.982;12.064;2022-12-18T01:34:36;-1.90;93.00
12053;DHT22;6087;48.982;12.064;2022-12-18T01:37:04;-1.90;92.60
12053;DHT22;6087;48.982;12.064;2022-12-18T01:39:31;-1.90;93.10
12053;DHT22;6087;48.982;12.064;2022-12-18T01:41:58;-1.90;92.90
12053;DHT22;6087;48.982;12.064;2022-12-18T01:45:05;-1.90;93.50
12053;DHT22;6087;48.982;12.064;2022-12-18T01:47:36;-1.90;92.90
12053;DHT22;6087;48.982;12.064;2022-12-18T01:50:08;-1.90;92.90
12053;DHT22;6087;48.982;12.064;2022-12-18T01:52:36;-1.90;93.20
12053;DHT22;6087;48.982;12.064;2022-12-18T01:55:05;-1.90;93.00
12053;DHT22;6087;48.982;12.064;2022-12-18T01:57:33;-1.90;92.90
12053;DHT22;6087;48.982;12.064;2022-12-18T02:00:02;-1.90;93.00
12053;DHT22;6087;48.982;12.064;2022-12-18T02:02:30;-1.80;93.10
12053;DHT22;6087;48.982;12.064;2022-12-18T02:04:59;-1.80;92.90
12053;DHT22;6087;48.982;12.064;2022-12-18T02:07:33;-1.80;93.00
12053;DHT22;6087;48.982;12.064;2022-12-18T02:10:07;-1.80;93.20
12053;DHT22;6087;48.982;12.064;2022-12-18T02:12:43;-1.90;93.70
12053;DHT22;6087;48.982;12.064;2022-12-18T02:15:16;-1.80;93.90
12053;DHT22;6087;48.982;12.064;2022-12-18T02:17:50;-1.90;93.60
12053;DHT22;6087;48.982;12.064;2022-12-18T02:20:25;-1.80;93.50
12053;DHT22;6087;48.982;12.064;2022-12-18T02:23:04;-1.80;92.80
12053;DHT22;6087;48.982;12.064;2022-12-18T02:28:17;-1.80;92.40
12053;DHT22;6087;48.982;12.064;2022-12-18T02:30:48;-1.80;92.80
12053;DHT22;6087;48.982;12.064;2022-12-18T02:33:16;-1.80;92.20
12053;DHT22;6087;48.982;12.064;2022-12-18T02:35:44;-1.80;92.80
12053;DHT22;6087;48.982;12.064;2022-12-18T02:38:12;-1.80;92.70
12053;DHT22;6087;48.982;12.064;2022-12-18T02:40:42;-1.80;92.50
12053;DHT22;6087;48.982;12.064;2022-12-18T02:43:11;-1.80;92.30
12053;DHT22;6087;48.982;12.064;2022-12-18T02:45:49;-1.80;92.50
12053;DHT22;6087;48.982;12.064;2022-12-18T02:48:18;-1.80;92.50
12053;DHT22;6087;48.982;12.064;2022-12-18T02:50:54;-1.80;92.80
12053;DHT22;6087;48.982;12.064;2022-12-18T02:53:28;-1.80;92.40
12053;DHT22;6087;48.982;12.064;2022-12-18T02:56:02;-1.80;92.40
12053;DHT22;6087;48.982;12.064;2022-12-18T02:58:33;-1.80;92.40
12053;DHT22;6087;48.982;12.064;2022-12-18T03:01:09;-1.80;92.70
12053;DHT22;6087;48.982;12.064;2022-12-18T03:03:40;-1.80;92.30
12053;DHT22;6087;48.982;12.064;2022-12-18T03:06:12;-1.80;91.90
12053;DHT22;6087;48.982;12.064;2022-12-18T03:08:43;-1.80;91.90
12053;DHT22;6087;48.982;12.064;2022-12-18T03:11:13;-1.80;92.80
12053;DHT22;6087;48.982;12.064;2022-12-18T03:13:44;-1.80;92.90
12053;DHT22;6087;48.982;12.064;2022-12-18T03:16:17;-1.80;92.10
12053;DHT22;6087;48.982;12.064;2022-12-18T03:18:48;-1.80;92.80
12053;DHT22;6087;48.982;12.064;2022-12-18T03:21:19;-1.80;92.90
12053;DHT22;6087;48.982;12.064;2022-12-18T03:23:49;-1.80;92.30
12053;DHT22;6087;48.982;12.064;2022-12-18T03:26:20;-1.80;92.70
12053;DHT22;6087;48.982;12.064;2022-12-18T03:28:52;-1.80;92.80
12053;DHT22;6087;48.982;12.064;2022-12-18T03:31:23;-1.80;92.90
12053;DHT22;6087;48.982;12.064;2022-12-18T03:33:53;-1.80;92.80
12053;DHT22;6087;48.982;12.064;2022-12-18T03:36:20;-1.80;92.40
12053;DHT22;6087;48.982;12.064;2022-12-18T03:38:47;-1.70;92.60
12053;DHT22;6087;48.982;12.064;2022-12-18T03:41:19;-1.80;92.40
12053;DHT22;6087;48.982;12.064;2022-12-18T03:43:51;-1.70;92.60
12053;DHT22;6087;48.982;12.064;2022-12-18T03:46:26;-1.70;92.20
12053;DHT22;6087;48.982;12.064;2022-12-18T03:49:00;-1.70;92.30
12053;DHT22;6087;48.982;12.064;2022-12-18T03:51:39;-1.70;92.40
12053;DHT22;6087;48.982;12.064;2022-12-18T03:54:10;-1.70;92.30
12053;DHT22;6087;48.982;12.064;2022-12-18T03:56:40;-1.80;92.60
12053;DHT22;6087;48.982;12.064;2022-12-18T03:59:10;-1.70;92.80
12053;DHT22;6087;48.982;12.064;2022-12-18T04:01:45;-1.70;92.70
12053;DHT22;6087;48.982;12.064;2022-12-18T04:04:13;-1.80;92.50
12053;DHT22;6087;48.982;12.064;2022-12-18T04:06:42;-1.80;93.00
12053;DHT22;6087;48.982;12.064;2022-12-18T04:09:10;-1.80;92.80
12053;DHT22;6087;48.982;12.064;2022-12-18T04:11:37;-1.80;93.90
12053;DHT22;6087;48.982;12.064;2022-12-18T04:14:04;-1.80;92.90
12053;DHT22;6087;48.982;12.064;2022-12-18T04:16:31;-1.80;92.70
12053;DHT22;6087;48.982;12.064;2022-12-18T04:18:59;-1.70;92.90
12053;DHT22;6087;48.982;12.064;2022-12-18T04:21:26;-1.70;92.70
12053;DHT22;6087;48.982;12.064;2022-12-18T04:23:53;-1.70;92.60
12053;DHT22;6087;48.982;12.064;2022-12-18T04:26:20;-1.70;92.50
12053;DHT22;6087;48.982;12.064;2022-12-18T04:28:47;-1.70;92.80
12053;DHT22;6087;48.982;12.064;2022-12-18T04:31:14;-1.70;92.60
12053;DHT22;6087;48.982;12.064;2022-12-18T04:33:41;-1.70;92.50
12053;DHT22;6087;48.982;12.064;2022-12-18T04:36:10;-1.80;93.80
12053;DHT22;6087;48.982;12.064;2022-12-18T04:38:38;-1.70;93.20
12053;DHT22;6087;48.982;12.064;2022-12-18T04:41:05;-1.70;93.10
12053;DHT22;6087;48.982;12.064;2022-12-18T04:43:32;-1.80;93.10
12053;DHT22;6087;48.982;12.064;2022-12-18T04:46:03;-1.80;93.60
12053;DHT22;6087;48.982;12.064;2022-12-18T04:48:30;-1.80;94.00
12053;DHT22;6087;48.982;12.064;2022-12-18T04:50:57;-1.80;93.90
12053;DHT22;6087;48.982;12.064;2022-12-18T04:53:26;-1.70;93.70
12053;DHT22;6087;48.982;12.064;2022-12-18T04:56:03;-1.70;93.10
12053;DHT22;6087;48.982;12.064;2022-12-18T04:58:30;-1.70;92.80
12053;DHT22;6087;48.982;12.064;2022-12-18T05:00:57;-1.80;92.50
12053;DHT22;6087;48.982;12.064;2022-12-18T05:03:24;-1.70;92.60
12053;DHT22;6087;48.982;12.064;2022-12-18T05:05:51;-1.70;92.40
12053;DHT22;6087;48.982;12.064;2022-12-18T05:08:19;-1.70;92.10
12053;DHT22;6087;48.982;12.064;2022-12-18T05:10:47;-1.70;91.90
12053;DHT22;6087;48.982;12.064;2022-12-18T05:13:14;-1.70;91.40
12053;DHT22;6087;48.982;12.064;2022-12-18T05:15:41;-1.80;91.50
12053;DHT22;6087;48.982;12.064;2022-12-18T05:18:08;-1.80;91.70
12053;DHT22;6087;48.982;12.064;2022-12-18T05:20:35;-1.80;91.70
12053;DHT22;6087;48.982;12.064;2022-12-18T05:23:02;-1.80;91.50
12053;DHT22;6087;48.982;12.064;2022-12-18T05:25:29;-1.80;91.20
12053;DHT22;6087;48.982;12.064;2022-12-18T05:27:58;-1.80;91.30
12053;DHT22;6087;48.982;12.064;2022-12-18T05:30:25;-1.80;91.70
12053;DHT22;6087;48.982;12.064;2022-12-18T05:32:51;-1.70;91.60
12053;DHT22;6087;48.982;12.064;2022-12-18T05:35:18;-1.80;91.90
12053;DHT22;6087;48.982;12.064;2022-12-18T05:37:45;-1.80;91.80
12053;DHT22;6087;48.982;12.064;2022-12-18T05:40:13;-1.70;91.60
12053;DHT22;6087;48.982;12.064;2022-12-18T05:42:40;-1.80;91.90
12053;DHT22;6087;48.982;12.064;2022-12-18T05:45:09;-1.80;91.70
12053;DHT22;6087;48.982;12.064;2022-12-18T05:47:36;-1.80;91.70
12053;DHT22;6087;48.982;12.064;2022-12-18T05:50:04;-1.80;91.60
12053;DHT22;6087;48.982;12.064;2022-12-18T05:52:31;-1.80;91.30
12053;DHT22;6087;48.982;12.064;2022-12-18T05:54:58;-1.70;91.20
12053;DHT22;6087;48.982;12.064;2022-12-18T05:57:25;-1.80;91.00
12053;DHT22;6087;48.982;12.064;2022-12-18T05:59:52;-1.70;91.10
12053;DHT22;6087;48.982;12.064;2022-12-18T06:02:21;-1.80;90.70
12053;DHT22;6087;48.982;12.064;2022-12-18T06:04:48;-1.70;90.60
12053;DHT22;6087;48.982;12.064;2022-12-18T06:07:15;-1.80;90.70
12053;DHT22;6087;48.982;12.064;2022-12-18T06:09:42;-1.80;90.70
12053;DHT22;6087;48.982;12.064;2022-12-18T06:12:09;-1.80;90.70
12053;DHT22;6087;48.982;12.064;2022-12-18T06:14:36;-1.80;90.60
12053;DHT22;6087;48.982;12.064;2022-12-18T06:17:03;-1.90;90.80
12053;DHT22;6087;48.982;12.064;2022-12-18T06:19:31;-1.80;90.70
12053;DHT22;6087;48.982;12.064;2022-12-18T06:21:59;-1.90;90.70
12053;DHT22;6087;48.982;12.064;2022-12-18T06:24:26;-1.90;90.50
12053;DHT22;6087;48.982;12.064;2022-12-18T06:26:53;-1.90;90.90
12053;DHT22;6087;48.982;12.064;2022-12-18T06:29:20;-1.90;91.00
12053;DHT22;6087;48.982;12.064;2022-12-18T06:31:47;-1.90;91.10
12053;DHT22;6087;48.982;12.064;2022-12-18T06:34:14;-1.90;90.60
12053;DHT22;6087;48.982;12.064;2022-12-18T06:36:42;-1.80;90.70
12053;DHT22;6087;48.982;12.064;2022-12-18T06:39:09;-1.80;90.50
12053;DHT22;6087;48.982;12.064;2022-12-18T06:41:36;-1.80;90.30
12053;DHT22;6087;48.982;12.064;2022-12-18T06:44:03;-1.90;90.30
12053;DHT22;6087;48.982;12.064;2022-12-18T06:46:31;-1.80;90.50
12053;DHT22;6087;48.982;12.064;2022-12-18T06:48:58;-1.90;90.50
12053;DHT22;6087;48.982;12.064;2022-12-18T06:51:25;-1.90;90.10
12053;DHT22;6087;48.982;12.064;2022-12-18T06:53:54;-1.90;90.20
12053;DHT22;6087;48.982;12.064;2022-12-18T06:56:21;-1.90;90.70
12053;DHT22;6087;48.982;12.064;2022-12-18T06:58:48;-1.90;90.40
12053;DHT22;6087;48.982;12.064;2022-12-18T07:01:15;-1.80;90.40
12053;DHT22;6087;48.982;12.064;2022-12-18T07:03:42;-1.90;90.40
12053;DHT22;6087;48.982;12.064;2022-12-18T07:06:14;-1.80;90.50
12053;DHT22;6087;48.982;12.064;2022-12-18T07:08:41;-1.80;90.50
12053;DHT22;6087;48.982;12.064;2022-12-18T07:11:10;-1.90;90.60
12053;DHT22;6087;48.982;12.064;2022-12-18T07:13:37;-1.80;90.40
12053;DHT22;6087;48.982;12.064;2022-12-18T07:16:06;-1.80;90.40
12053;DHT22;6087;48.982;12.064;2022-12-18T07:18:33;-1.80;90.20
12053;DHT22;6087;48.982;12.064;2022-12-18T07:21:03;-1.80;90.00
12053;DHT22;6087;48.982;12.064;2022-12-18T07:23:32;-1.90;90.30
12053;DHT22;6087;48.982;12.064;2022-12-18T07:26:01;-1.80;90.80
12053;DHT22;6087;48.982;12.064;2022-12-18T07:28:30;-1.80;90.70
12053;DHT22;6087;48.982;12.064;2022-12-18T07:30:57;-1.80;90.70
12053;DHT22;6087;48.982;12.064;2022-12-18T07:33:26;-1.80;90.70
12053;DHT22;6087;48.982;12.064;2022-12-18T07:35:53;-1.80;90.50
12053;DHT22;6087;48.982;12.064;2022-12-18T07:38:20;-1.80;90.30
12053;DHT22;6087;48.982;12.064;2022-12-18T07:40:47;-1.80;90.60
12053;DHT22;6087;48.982;12.064;2022-12-18T07:43:14;-1.70;90.40
12053;DHT22;6087;48.982;12.064;2022-12-18T07:45:43;-1.80;90.30
12053;DHT22;6087;48.982;12.064;2022-12-18T07:48:10;-1.80;90.40
12053;DHT22;6087;48.982;12.064;2022-12-18T07:50:37;-1.80;91.20
12053;DHT22;6087;48.982;12.064;2022-12-18T07:53:05;-1.80;91.30
12053;DHT22;6087;48.982;12.064;2022-12-18T07:55:32;-1.90;91.20
12053;DHT22;6087;48.982;12.064;2022-12-18T07:58:01;-1.90;90.80
12053;DHT22;6087;48.982;12.064;2022-12-18T08:00:29;-1.90;90.40
12053;DHT22;6087;48.982;12.064;2022-12-18T08:02:57;-2.00;90.50
12053;DHT22;6087;48.982;12.064;2022-12-18T08:05:25;-2.00;91.80
12053;DHT22;6087;48.982;12.064;2022-12-18T08:07:52;-2.00;91.50
12053;DHT22;6087;48.982;12.064;2022-12-18T08:10:19;-2.00;91.20
12053;DHT22;6087;48.982;12.064;2022-12-18T08:12:49;-1.90;91.40
12053;DHT22;6087;48.982;12.064;2022-12-18T08:15:16;-1.90;91.30
12053;DHT22;6087;48.982;12.064;2022-12-18T08:17:43;-1.90;90.60
12053;DHT22;6087;48.982;12.064;2022-12-18T08:20:12;-1.90;90.30
12053;DHT22;6087;48.982;12.064;2022-12-18T08:22:40;-1.90;90.10
12053;DHT22;6087;48.982;12.064;2022-12-18T08:25:08;-1.90;90.30
12053;DHT22;6087;48.982;12.064;2022-12-18T08:27:35;-1.90;90.50
12053;DHT22;6087;48.982;12.064;2022-12-18T08:30:03;-1.90;90.00
12053;DHT22;6087;48.982;12.064;2022-12-18T08:32:30;-1.80;90.50
12053;DHT22;6087;48.982;12.064;2022-12-18T08:34:58;-1.80;90.30
12053;DHT22;6087;48.982;12.064;2022-12-18T08:37:26;-1.80;90.60
12053;DHT22;6087;48.982;12.064;2022-12-18T08:39:53;-1.80;89.80
12053;DHT22;6087;48.982;12.064;2022-12-18T08:42:20;-1.80;90.60
12053;DHT22;6087;48.982;12.064;2022-12-18T08:45:05;-1.80;90.60
12053;DHT22;6087;48.982;12.064;2022-12-18T08:47:33;-1.70;90.10
12053;DHT22;6087;48.982;12.064;2022-12-18T08:49:59;-1.70;90.40
12053;DHT22;6087;48.982;12.064;2022-12-18T08:52:28;-1.70;90.40
12053;DHT22;6087;48.982;12.064;2022-12-18T08:54:55;-1.80;90.80
12053;DHT22;6087;48.982;12.064;2022-12-18T08:57:22;-1.70;90.60
12053;DHT22;6087;48.982;12.064;2022-12-18T08:59:49;-1.70;90.40
12053;DHT22;6087;48.982;12.064;2022-12-18T09:02:16;-1.70;90.40
12053;DHT22;6087;48.982;12.064;2022-12-18T09:04:43;-1.60;90.50
12053;DHT22;6087;48.982;12.064;2022-12-18T09:07:10;-1.60;89.60
12053;DHT22;6087;48.982;12.064;2022-12-18T09:09:38;-1.60;90.00
12053;DHT22;6087;48.982;12.064;2022-12-18T09:12:05;-1.60;89.80
12053;DHT22;6087;48.982;12.064;2022-12-18T09:14:32;-1.60;90.00
12053;DHT22;6087;48.982;12.064;2022-12-18T09:16:59;-1.60;90.00
12053;DHT22;6087;48.982;12.064;2022-12-18T09:19:26;-1.60;90.00
12053;DHT22;6087;48.982;12.064;2022-12-18T09:21:53;-1.60;90.00
12053;DHT22;6087;48.982;12.064;2022-12-18T09:24:20;-1.60;90.00
12053;DHT22;6087;48.982;12.064;2022-12-18T09:26:52;-1.50;89.00
12053;DHT22;6087;48.982;12.064;2022-12-18T09:29:19;-1.50;89.50
12053;DHT22;6087;48.982;12.064;2022-12-18T09:31:46;-1.50;89.10
12053;DHT22;6087;48.982;12.064;2022-12-18T09:34:13;-1.50;88.40
12053;DHT22;6087;48.982;12.064;2022-12-18T09:36:40;-1.50;88.50
12053;DHT22;6087;48.982;12.064;2022-12-18T09:39:07;-1.50;88.00
12053;DHT22;6087;48.982;12.064;2022-12-18T09:41:44;-1.50;88.20
12053;DHT22;6087;48.982;12.064;2022-12-18T09:44:18;-1.50;87.30
12053;DHT22;6087;48.982;12.064;2022-12-18T09:46:49;-1.50;87.20
12053;DHT22;6087;48.982;12.064;2022-12-18T09:49:20;-1.50;86.90
12053;DHT22;6087;48.982;12.064;2022-12-18T09:51:52;-1.50;84.90
12053;DHT22;6087;48.982;12.064;2022-12-18T09:54:24;-1.60;88.70
12053;DHT22;6087;48.982;12.064;2022-12-18T09:56:52;-1.60;87.80
12053;DHT22;6087;48.982;12.064;2022-12-18T09:59:24;-1.60;88.30
12053;DHT22;6087;48.982;12.064;2022-12-18T10:01:51;-1.60;86.40
12053;DHT22;6087;48.982;12.064;2022-12-18T10:04:18;-1.60;85.70
12053;DHT22;6087;48.982;12.064;2022-12-18T10:06:51;-1.60;86.20
12053;DHT22;6087;48.982;12.064;2022-12-18T10:09:27;-1.50;86.20
12053;DHT22;6087;48.982;12.064;2022-12-18T10:12:02;-1.50;86.40
12053;DHT22;6087;48.982;12.064;2022-12-18T10:14:36;-1.50;86.70
12053;DHT22;6087;48.982;12.064;2022-12-18T10:17:15;-1.50;86.70
12053;DHT22;6087;48.982;12.064;2022-12-18T10:19:49;-1.50;86.80
12053;DHT22;6087;48.982;12.064;2022-12-18T10:22:44;-1.50;87.30
12053;DHT22;6087;48.982;12.064;2022-12-18T10:25:20;-1.40;87.20
12053;DHT22;6087;48.982;12.064;2022-12-18T10:27:49;-1.40;86.60
12053;DHT22;6087;48.982;12.064;2022-12-18T10:30:21;-1.30;85.70
12053;DHT22;6087;48.982;12.064;2022-12-18T10:32:48;-1.30;85.80
12053;DHT22;6087;48.982;12.064;2022-12-18T10:35:18;-1.40;86.30
12053;DHT22;6087;48.982;12.064;2022-12-18T10:38:04;-1.30;85.90
12053;DHT22;6087;48.982;12.064;2022-12-18T10:40:32;-1.30;85.70
12053;DHT22;6087;48.982;12.064;2022-12-18T10:43:11;-1.30;85.60
12053;DHT22;6087;48.982;12.064;2022-12-18T10:45:40;-1.30;85.00
12053;DHT22;6087;48.982;12.064;2022-12-18T10:48:18;-1.30;84.60
12053;DHT22;6087;48.982;12.064;2022-12-18T10:50:48;-1.30;84.60
12053;DHT22;6087;48.982;12.064;2022-12-18T10:53:20;-1.30;83.80
12053;DHT22;6087;48.982;12.064;2022-12-18T10:55:48;-1.30;83.60
12053;DHT22;6087;48.982;12.064;2022-12-18T10:58:25;-1.30;84.50
12053;DHT22;6087;48.982;12.064;2022-12-18T11:01:12;-1.30;84.20
12053;DHT22;6087;48.982;12.064;2022-12-18T11:03:43;-1.30;83.90
12053;DHT22;6087;48.982;12.064;2022-12-18T11:06:12;-1.40;84.30
12053;DHT22;6087;48.982;12.064;2022-12-18T11:08:40;-1.40;84.00
12053;DHT22;6087;48.982;12.064;2022-12-18T11:11:15;-1.40;84.10
12053;DHT22;6087;48.982;12.064;2022-12-18T11:13:57;-1.40;84.70
12053;DHT22;6087;48.982;12.064;2022-12-18T11:16:27;-1.40;83.90
12053;DHT22;6087;48.982;12.064;2022-12-18T11:19:10;-1.30;84.80
12053;DHT22;6087;48.982;12.064;2022-12-18T11:21:40;-1.30;84.60
12053;DHT22;6087;48.982;12.064;2022-12-18T11:24:19;-1.30;84.90
12053;DHT22;6087;48.982;12.064;2022-12-18T11:26:47;-1.30;84.30
12053;DHT22;6087;48.982;12.064;2022-12-18T11:29:17;-1.30;84.20
12053;DHT22;6087;48.982;12.064;2022-12-18T11:31:46;-1.30;84.00
12053;DHT22;6087;48.982;12.064;2022-12-18T11:34:17;-1.30;83.80
12053;DHT22;6087;48.982;12.064;2022-12-18T11:36:49;-1.20;84.20
12053;DHT22;6087;48.982;12.064;2022-12-18T11:39:19;-1.30;83.40
12053;DHT22;6087;48.982;12.064;2022-12-18T11:41:50;-1.30;84.00
12053;DHT22;6087;48.982;12.064;2022-12-18T11:44:42;-1.30;83.50
12053;DHT22;6087;48.982;12.064;2022-12-18T11:47:16;-1.20;83.30
12053;DHT22;6087;48.982;12.064;2022-12-18T11:49:48;-1.20;83.30
12053;DHT22;6087;48.982;12.064;2022-12-18T11:52:19;-1.20;83.00
12053;DHT22;6087;48.982;12.064;2022-12-18T11:54:56;-1.30;83.20
12053;DHT22;6087;48.982;12.064;2022-12-18T11:57:33;-1.30;82.80
12053;DHT22;6087;48.982;12.064;2022-12-18T12:00:11;-1.30;82.90
12053;DHT22;6087;48.982;12.064;2022-12-18T12:03:01;-1.30;82.90
12053;DHT22;6087;48.982;12.064;2022-12-18T12:05:41;-1.30;83.70
12053;DHT22;6087;48.982;12.064;2022-12-18T12:08:16;-1.20;83.80
12053;DHT22;6087;48.982;12.064;2022-12-18T12:10:56;-1.20;84.20
12053;DHT22;6087;48.982;12.064;2022-12-18T12:13:36;-1.20;82.90
12053;DHT22;6087;48.982;12.064;2022-12-18T12:16:14;-1.20;82.80
12053;DHT22;6087;48.982;12.064;2022-12-18T12:19:02;-1.30;84.10
12053;DHT22;6087;48.982;12.064;2022-12-18T12:21:36;-1.20;83.20
12053;DHT22;6087;48.982;12.064;2022-12-18T12:24:18;-1.20;82.00
12053;DHT22;6087;48.982;12.064;2022-12-18T12:26:53;-1.20;82.60
12053;DHT22;6087;48.982;12.064;2022-12-18T12:29:31;-1.20;83.10
12053;DHT22;6087;48.982;12.064;2022-12-18T12:32:09;-1.20;82.90
12053;DHT22;6087;48.982;12.064;2022-12-18T12:34:47;-1.10;84.40
12053;DHT22;6087;48.982;12.064;2022-12-18T12:37:25;-1.10;83.20
12053;DHT22;6087;48.982;12.064;2022-12-18T12:39:56;-1.20;82.30
12053;DHT22;6087;48.982;12.064;2022-12-18T12:42:34;-1.20;82.70
12053;DHT22;6087;48.982;12.064;2022-12-18T12:45:23;-1.20;82.60
12053;DHT22;6087;48.982;12.064;2022-12-18T12:47:53;-1.20;82.80
12053;DHT22;6087;48.982;12.064;2022-12-18T12:50:22;-1.20;82.70
12053;DHT22;6087;48.982;12.064;2022-12-18T12:52:53;-1.20;83.10
12053;DHT22;6087;48.982;12.064;2022-12-18T12:55:22;-1.20;82.50
12053;DHT22;6087;48.982;12.064;2022-12-18T12:57:57;-1.20;82.40
12053;DHT22;6087;48.982;12.064;2022-12-18T13:00:25;-1.20;81.70
12053;DHT22;6087;48.982;12.064;2022-12-18T13:02:59;-1.20;82.60
12053;DHT22;6087;48.982;12.064;2022-12-18T13:05:33;-1.20;82.20
12053;DHT22;6087;48.982;12.064;2022-12-18T13:08:06;-1.20;82.40
12053;DHT22;6087;48.982;12.064;2022-12-18T13:10:35;-1.10;82.40
12053;DHT22;6087;48.982;12.064;2022-12-18T13:13:05;-1.20;81.80
12053;DHT22;6087;48.982;12.064;2022-12-18T13:15:36;-1.10;82.20
12053;DHT22;6087;48.982;12.064;2022-12-18T13:18:16;-1.10;82.90
12053;DHT22;6087;48.982;12.064;2022-12-18T13:20:47;-1.10;83.10
12053;DHT22;6087;48.982;12.064;2022-12-18T13:23:28;-1.10;82.90
12053;DHT22;6087;48.982;12.064;2022-12-18T13:25:56;-1.10;82.00
12053;DHT22;6087;48.982;12.064;2022-12-18T13:28:51;-1.10;82.80
12053;DHT22;6087;48.982;12.064;2022-12-18T13:34:19;-1.10;82.40
12053;DHT22;6087;48.982;12.064;2022-12-18T13:36:48;-1.10;82.00
12053;DHT22;6087;48.982;12.064;2022-12-18T13:39:22;-1.10;82.60
12053;DHT22;6087;48.982;12.064;2022-12-18T13:41:52;-1.10;82.10
12053;DHT22;6087;48.982;12.064;2022-12-18T13:44:28;-1.10;82.40
12053;DHT22;6087;48.982;12.064;2022-12-18T13:46:57;-1.10;81.80
12053;DHT22;6087;48.982;12.064;2022-12-18T13:49:28;-1.10;81.80
12053;DHT22;6087;48.982;12.064;2022-12-18T13:51:59;-1.10;81.90
12053;DHT22;6087;48.982;12.064;2022-12-18T13:54:33;-1.10;81.40
12053;DHT22;6087;48.982;12.064;2022-12-18T13:57:02;-1.10;81.50
12053;DHT22;6087;48.982;12.064;2022-12-18T13:59:34;-1.10;81.50
12053;DHT22;6087;48.982;12.064;2022-12-18T14:02:12;-1.20;80.90
12053;DHT22;6087;48.982;12.064;2022-12-18T14:04:39;-1.10;81.30
12053;DHT22;6087;48.982;12.064;2022-12-18T14:07:12;-1.10;81.00
12053;DHT22;6087;48.982;12.064;2022-12-18T14:09:42;-1.10;80.40
12053;DHT22;6087;48.982;12.064;2022-12-18T14:12:17;-1.10;79.90
12053;DHT22;6087;48.982;12.064;2022-12-18T14:15:03;-1.10;79.20
12053;DHT22;6087;48.982;12.064;2022-12-18T14:17:32;-1.10;79.10
12053;DHT22;6087;48.982;12.064;2022-12-18T14:20:00;-1.10;78.90
12053;DHT22;6087;48.982;12.064;2022-12-18T14:22:45;-1.10;78.30
12053;DHT22;6087;48.982;12.064;2022-12-18T14:25:18;-1.10;78.10
12053;DHT22;6087;48.982;12.064;2022-12-18T14:27:47;-1.10;77.50
12053;DHT22;6087;48.982;12.064;2022-12-18T14:30:26;-1.10;77.50
12053;DHT22;6087;48.982;12.064;2022-12-18T14:33:03;-1.10;77.20
12053;DHT22;6087;48.982;12.064;2022-12-18T14:35:30;-1.20;76.60
12053;DHT22;6087;48.982;12.064;2022-12-18T14:38:20;-1.20;76.10
12053;DHT22;6087;48.982;12.064;2022-12-18T14:40:47;-1.20;76.10
12053;DHT22;6087;48.982;12.064;2022-12-18T14:43:18;-1.20;76.00
12053;DHT22;6087;48.982;12.064;2022-12-18T14:45:45;-1.30;75.40
12053;DHT22;6087;48.982;12.064;2022-12-18T14:48:16;-1.40;75.40
12053;DHT22;6087;48.982;12.064;2022-12-18T14:50:44;-1.40;75.30
12053;DHT22;6087;48.982;12.064;2022-12-18T14:53:25;-1.40;75.00
12053;DHT22;6087;48.982;12.064;2022-12-18T14:55:55;-1.40;74.80
12053;DHT22;6087;48.982;12.064;2022-12-18T14:58:22;-1.50;74.70
12053;DHT22;6087;48.982;12.064;2022-12-18T15:00:49;-1.60;74.90
12053;DHT22;6087;48.982;12.064;2022-12-18T15:03:18;-1.60;75.00
12053;DHT22;6087;48.982;12.064;2022-12-18T15:05:46;-1.60;74.80
12053;DHT22;6087;48.982;12.064;2022-12-18T15:08:32;-1.60;75.00
12053;DHT22;6087;48.982;12.064;2022-12-18T15:11:00;-1.70;75.00
12053;DHT22;6087;48.982;12.064;2022-12-18T15:13:27;-1.70;74.90
12053;DHT22;6087;48.982;12.064;2022-12-18T15:15:55;-1.80;75.30
12053;DHT22;6087;48.982;12.064;2022-12-18T15:18:28;-1.80;75.40
12053;DHT22;6087;48.982;12.064;2022-12-18T15:20:58;-1.90;75.40
12053;DHT22;6087;48.982;12.064;2022-12-18T15:23:27;-1.90;75.40
12053;DHT22;6087;48.982;12.064;2022-12-18T15:25:58;-1.90;75.70
12053;DHT22;6087;48.982;12.064;2022-12-18T15:28:27;-2.00;76.10
12053;DHT22;6087;48.982;12.064;2022-12-18T15:31:05;-2.00;76.00
12053;DHT22;6087;48.982;12.064;2022-12-18T15:33:34;-2.00;75.90
12053;DHT22;6087;48.982;12.064;2022-12-18T15:36:03;-2.00;75.90
12053;DHT22;6087;48.982;12.064;2022-12-18T15:38:30;-2.10;75.70
12053;DHT22;6087;48.982;12.064;2022-12-18T15:40:59;-2.10;75.60
12053;DHT22;6087;48.982;12.064;2022-12-18T15:43:26;-2.10;75.70
12053;DHT22;6087;48.982;12.064;2022-12-18T15:46:03;-2.10;75.50
12053;DHT22;6087;48.982;12.064;2022-12-18T15:48:32;-2.10;75.70
12053;DHT22;6087;48.982;12.064;2022-12-18T15:50:59;-2.20;75.30
12053;DHT22;6087;48.982;12.064;2022-12-18T15:53:29;-2.20;75.60
12053;DHT22;6087;48.982;12.064;2022-12-18T15:55:58;-2.20;75.50